sensor_id;sensor_type;location;lat;lon;timestamp;P1;durP1;ratioP1;P2;durP2;ratioP2
20478;SDS011;10398;52.490;13.434;2023-09-19T00:00:30;1.63;;;1.00;;
20478;SDS011;10398;52.490;13.434;2023-09-19T00:02:58;2.08;;;1.02;;
20478;SDS011;10398;52.490;13.434;2023-09-19T00:05:24;3.22;;;1.20;;
20478;SDS011;10398;52.490;13.434;2023-09-19T00:07:53;3.53;;;1.10;;
20478;SDS011;10398;52.490;13.434;2023-09-19T00:10:20;1.90;;;1.00;;
20478;SDS011;10398;52.490;13.434;2023-09-19T00:12:55;2.17;;;1.17;;
20478;SDS011;10398;52.490;13.434;2023-09-19T00:15:23;3.10;;;1.20;;
20478;SDS011;10398;52.490;13.434;2023-09-19T00:17:53;2.70;;;0.75;;
20478;SDS011;10398;52.490;13.434;2023-09-19T00:20:20;5.55;;;1.20;;
20478;SDS011;10398;52.490;13.434;2023-09-19T00:22:48;2.13;;;0.82;;
20478;SDS011;10398;52.490;13.434;2023-09-19T00:25:18;2.70;;;0.82;;
20478;SDS011;10398;52.490;13.434;2023-09-19T00:27:45;1.85;;;1.00;;
20478;SDS011;10398;52.490;13.434;2023-09-19T00:30:14;3.13;;;1.02;;
20478;SDS011;10398;52.490;13.434;2023-09-19T00:32:47;1.88;;;0.90;;
20478;SDS011;10398;52.490;13.434;2023-09-19T00:35:13;3.83;;;1.15;;
20478;SDS011;10398;52.490;13.434;2023-09-19T00:37:40;3.28;;;1.00;;
20478;SDS011;10398;52.490;13.434;2023-09-19T00:40:09;2.90;;;1.10;;
20478;SDS011;10398;52.490;13.434;2023-09-19T00:42:45;2.83;;;0.90;;
20478;SDS011;10398;52.490;13.434;2023-09-19T00:45:13;3.53;;;1.00;;
20478;SDS011;10398;52.490;13.434;2023-09-19T00:47:49;2.10;;;1.40;;
20478;SDS011;10398;52.490;13.434;2023-09-19T00:50:16;3.83;;;1.10;;
20478;SDS011;10398;52.490;13.434;2023-09-19T00:52:44;2.65;;;1.02;;
20478;SDS011;10398;52.490;13.434;2023-09-19T00:55:12;5.65;;;1.55;;
20478;SDS011;10398;52.490;13.434;2023-09-19T00:57:39;2.60;;;1.05;;
20478;SDS011;10398;52.490;13.434;2023-09-19T01:00:06;2.00;;;0.80;;
20478;SDS011;10398;52.490;13.434;2023-09-19T01:02:35;1.92;;;1.13;;
20478;SDS011;10398;52.490;13.434;2023-09-19T01:05:02;1.65;;;0.80;;
20478;SDS011;10398;52.490;13.434;2023-09-19T01:07:30;2.45;;;1.00;;
20478;SDS011;10398;52.490;13.434;2023-09-19T01:09:57;3.78;;;1.15;;
20478;SDS011;10398;52.490;13.434;2023-09-19T01:15:38;3.08;;;0.95;;
20478;SDS011;10398;52.490;13.434;2023-09-19T01:24:03;3.15;;;1.00;;
20478;SDS011;10398;52.490;13.434;2023-09-19T01:29:26;4.82;;;0.93;;
20478;SDS011;10398;52.490;13.434;2023-09-19T01:32:05;1.40;;;0.80;;
20478;SDS011;10398;52.490;13.434;2023-09-19T01:37:12;2.47;;;1.25;;
20478;SDS011;10398;52.490;13.434;2023-09-19T01:39:38;2.75;;;0.95;;
20478;SDS011;10398;52.490;13.434;2023-09-19T01:42:11;5.60;;;1.17;;
20478;SDS011;10398;52.490;13.434;2023-09-19T01:44:57;1.58;;;0.90;;
20478;SDS011;10398;52.490;13.434;2023-09-19T01:47:33;1.27;;;0.80;;
20478;SDS011;10398;52.490;13.434;2023-09-19T01:50:17;3.47;;;1.02;;
20478;SDS011;10398;52.490;13.434;2023-09-19T01:52:57;2.67;;;1.08;;
20478;SDS011;10398;52.490;13.434;2023-09-19T01:55:29;3.33;;;1.20;;
20478;SDS011;10398;52.490;13.434;2023-09-19T01:58:01;2.33;;;0.95;;
20478;SDS011;10398;52.490;13.434;2023-09-19T02:00:36;1.42;;;0.80;;
20478;SDS011;10398;52.490;13.434;2023-09-19T02:03:05;2.20;;;0.85;;
20478;SDS011;10398;52.490;13.434;2023-09-19T02:05:31;3.80;;;0.90;;
20478;SDS011;10398;52.490;13.434;2023-09-19T02:07:58;3.33;;;1.10;;
20478;SDS011;10398;52.490;13.434;2023-09-19T02:10:24;1.90;;;0.80;;
20478;SDS011;10398;52.490;13.434;2023-09-19T02:12:50;2.45;;;0.90;;
20478;SDS011;10398;52.490;13.434;2023-09-19T02:15:16;5.30;;;0.90;;
20478;SDS011;10398;52.490;13.434;2023-09-19T02:17:44;1.80;;;0.93;;
20478;SDS011;10398;52.490;13.434;2023-09-19T02:20:11;4.97;;;0.95;;
20478;SDS011;10398;52.490;13.434;2023-09-19T02:22:40;3.88;;;1.20;;
20478;SDS011;10398;52.490;13.434;2023-09-19T02:25:06;1.83;;;1.20;;
20478;SDS011;10398;52.490;13.434;2023-09-19T02:27:33;4.88;;;1.35;;
20478;SDS011;10398;52.490;13.434;2023-09-19T02:29:58;0.82;;;0.80;;
20478;SDS011;10398;52.490;13.434;2023-09-19T02:32:27;2.58;;;1.20;;
20478;SDS011;10398;52.490;13.434;2023-09-19T02:34:55;8.20;;;1.33;;
20478;SDS011;10398;52.490;13.434;2023-09-19T02:37:20;2.38;;;0.80;;
20478;SDS011;10398;52.490;13.434;2023-09-19T02:39:46;1.88;;;1.38;;
20478;SDS011;10398;52.490;13.434;2023-09-19T02:42:12;2.17;;;0.98;;
20478;SDS011;10398;52.490;13.434;2023-09-19T02:44:38;2.50;;;1.10;;
20478;SDS011;10398;52.490;13.434;2023-09-19T02:47:05;2.13;;;0.85;;
20478;SDS011;10398;52.490;13.434;2023-09-19T02:49:30;2.50;;;1.17;;
20478;SDS011;10398;52.490;13.434;2023-09-19T02:51:56;2.33;;;0.80;;
20478;SDS011;10398;52.490;13.434;2023-09-19T02:54:23;2.67;;;0.65;;
20478;SDS011;10398;52.490;13.434;2023-09-19T02:56:49;1.40;;;0.80;;
20478;SDS011;10398;52.490;13.434;2023-09-19T02:59:15;2.30;;;0.98;;
20478;SDS011;10398;52.490;13.434;2023-09-19T03:01:43;7.10;;;1.25;;
20478;SDS011;10398;52.490;13.434;2023-09-19T03:04:08;2.97;;;0.95;;
20478;SDS011;10398;52.490;13.434;2023-09-19T03:06:36;2.25;;;0.80;;
20478;SDS011;10398;52.490;13.434;2023-09-19T03:09:03;3.92;;;1.02;;
20478;SDS011;10398;52.490;13.434;2023-09-19T03:11:31;6.15;;;0.80;;
20478;SDS011;10398;52.490;13.434;2023-09-19T03:13:56;2.15;;;0.65;;
20478;SDS011;10398;52.490;13.434;2023-09-19T03:16:23;3.15;;;0.93;;
20478;SDS011;10398;52.490;13.434;2023-09-19T03:18:50;2.17;;;0.75;;
20478;SDS011;10398;52.490;13.434;2023-09-19T03:21:16;3.47;;;1.15;;
20478;SDS011;10398;52.490;13.434;2023-09-19T03:23:42;4.72;;;1.05;;
20478;SDS011;10398;52.490;13.434;2023-09-19T03:26:12;2.38;;;0.82;;
20478;SDS011;10398;52.490;13.434;2023-09-19T03:28:41;1.15;;;0.70;;
20478;SDS011;10398;52.490;13.434;2023-09-19T03:31:08;2.00;;;0.52;;
20478;SDS011;10398;52.490;13.434;2023-09-19T03:33:34;1.85;;;0.80;;
20478;SDS011;10398;52.490;13.434;2023-09-19T03:36:00;1.10;;;0.65;;
20478;SDS011;10398;52.490;13.434;2023-09-19T03:38:30;1.98;;;0.80;;
20478;SDS011;10398;52.490;13.434;2023-09-19T03:40:56;1.42;;;0.88;;
20478;SDS011;10398;52.490;13.434;2023-09-19T03:43:22;2.17;;;0.60;;
20478;SDS011;10398;52.490;13.434;2023-09-19T03:45:48;1.63;;;0.73;;
20478;SDS011;10398;52.490;13.434;2023-09-19T03:48:14;5.00;;;0.73;;
20478;SDS011;10398;52.490;13.434;2023-09-19T03:50:40;5.15;;;1.05;;
20478;SDS011;10398;52.490;13.434;2023-09-19T03:53:05;1.25;;;0.75;;
20478;SDS011;10398;52.490;13.434;2023-09-19T03:55:34;6.18;;;1.05;;
20478;SDS011;10398;52.490;13.434;2023-09-19T03:58:00;2.13;;;1.10;;
20478;SDS011;10398;52.490;13.434;2023-09-19T04:00:26;5.95;;;0.95;;
20478;SDS011;10398;52.490;13.434;2023-09-19T04:02:54;1.48;;;0.60;;
20478;SDS011;10398;52.490;13.434;2023-09-19T04:05:21;1.73;;;0.95;;
20478;SDS011;10398;52.490;13.434;2023-09-19T04:07:48;2.85;;;0.90;;
20478;SDS011;10398;52.490;13.434;2023-09-19T04:10:13;1.05;;;0.63;;
20478;SDS011;10398;52.490;13.434;2023-09-19T04:12:40;1.42;;;0.73;;
20478;SDS011;10398;52.490;13.434;2023-09-19T04:15:05;3.55;;;1.08;;
20478;SDS011;10398;52.490;13.434;2023-09-19T04:17:32;2.67;;;0.70;;
20478;SDS011;10398;52.490;13.434;2023-09-19T04:20:00;2.15;;;1.02;;
20478;SDS011;10398;52.490;13.434;2023-09-19T04:22:26;4.20;;;1.00;;
20478;SDS011;10398;52.490;13.434;2023-09-19T04:24:51;1.17;;;0.63;;
20478;SDS011;10398;52.490;13.434;2023-09-19T04:27:17;4.07;;;0.98;;
20478;SDS011;10398;52.490;13.434;2023-09-19T04:29:43;1.55;;;0.77;;
20478;SDS011;10398;52.490;13.434;2023-09-19T04:32:09;1.00;;;0.50;;
20478;SDS011;10398;52.490;13.434;2023-09-19T04:34:35;2.90;;;0.80;;
20478;SDS011;10398;52.490;13.434;2023-09-19T04:37:03;2.42;;;0.70;;
20478;SDS011;10398;52.490;13.434;2023-09-19T04:39:29;1.85;;;0.80;;
20478;SDS011;10398;52.490;13.434;2023-09-19T04:41:54;4.15;;;1.00;;
20478;SDS011;10398;52.490;13.434;2023-09-19T04:44:20;0.77;;;0.55;;
20478;SDS011;10398;52.490;13.434;2023-09-19T04:46:46;2.25;;;0.60;;
20478;SDS011;10398;52.490;13.434;2023-09-19T04:49:12;0.50;;;0.50;;
20478;SDS011;10398;52.490;13.434;2023-09-19T04:51:38;4.38;;;0.90;;
20478;SDS011;10398;52.490;13.434;2023-09-19T04:54:04;1.45;;;0.60;;
20478;SDS011;10398;52.490;13.434;2023-09-19T04:56:30;2.47;;;0.63;;
20478;SDS011;10398;52.490;13.434;2023-09-19T04:58:57;3.80;;;0.68;;
20478;SDS011;10398;52.490;13.434;2023-09-19T05:01:23;2.70;;;0.60;;
20478;SDS011;10398;52.490;13.434;2023-09-19T05:03:50;3.80;;;0.90;;
20478;SDS011;10398;52.490;13.434;2023-09-19T05:06:17;2.05;;;0.57;;
20478;SDS011;10398;52.490;13.434;2023-09-19T05:08:45;0.82;;;0.50;;
20478;SDS011;10398;52.490;13.434;2023-09-19T05:11:14;1.83;;;0.88;;
20478;SDS011;10398;52.490;13.434;2023-09-19T05:13:40;1.45;;;0.60;;
20478;SDS011;10398;52.490;13.434;2023-09-19T05:16:05;7.18;;;0.75;;
20478;SDS011;10398;52.490;13.434;2023-09-19T05:18:35;3.20;;;0.95;;
20478;SDS011;10398;52.490;13.434;2023-09-19T05:21:01;3.58;;;0.57;;
20478;SDS011;10398;52.490;13.434;2023-09-19T05:23:28;1.52;;;0.80;;
20478;SDS011;10398;52.490;13.434;2023-09-19T05:25:53;1.52;;;0.73;;
20478;SDS011;10398;52.490;13.434;2023-09-19T05:28:21;2.35;;;1.52;;
20478;SDS011;10398;52.490;13.434;2023-09-19T05:30:47;2.63;;;0.70;;
20478;SDS011;10398;52.490;13.434;2023-09-19T05:33:14;2.22;;;0.70;;
20478;SDS011;10398;52.490;13.434;2023-09-19T05:35:39;4.05;;;0.80;;
20478;SDS011;10398;52.490;13.434;2023-09-19T05:38:07;4.70;;;1.02;;
20478;SDS011;10398;52.490;13.434;2023-09-19T05:40:37;1.65;;;1.17;;
20478;SDS011;10398;52.490;13.434;2023-09-19T05:43:05;4.30;;;0.70;;
20478;SDS011;10398;52.490;13.434;2023-09-19T05:45:31;1.25;;;0.75;;
20478;SDS011;10398;52.490;13.434;2023-09-19T05:48:06;1.23;;;0.60;;
20478;SDS011;10398;52.490;13.434;2023-09-19T05:50:33;3.92;;;0.88;;
20478;SDS011;10398;52.490;13.434;2023-09-19T05:52:59;1.98;;;0.73;;
20478;SDS011;10398;52.490;13.434;2023-09-19T05:55:24;2.13;;;1.00;;
20478;SDS011;10398;52.490;13.434;2023-09-19T05:57:50;1.52;;;0.70;;
20478;SDS011;10398;52.490;13.434;2023-09-19T06:00:18;3.42;;;1.10;;
20478;SDS011;10398;52.490;13.434;2023-09-19T06:02:48;4.20;;;1.10;;
20478;SDS011;10398;52.490;13.434;2023-09-19T06:05:15;1.52;;;0.82;;
20478;SDS011;10398;52.490;13.434;2023-09-19T06:07:41;1.55;;;0.98;;
20478;SDS011;10398;52.490;13.434;2023-09-19T06:10:07;3.58;;;0.80;;
20478;SDS011;10398;52.490;13.434;2023-09-19T06:12:33;3.35;;;0.90;;
20478;SDS011;10398;52.490;13.434;2023-09-19T06:15:04;2.92;;;1.05;;
20478;SDS011;10398;52.490;13.434;2023-09-19T06:17:40;5.45;;;1.13;;
20478;SDS011;10398;52.490;13.434;2023-09-19T06:20:12;2.53;;;0.50;;
20478;SDS011;10398;52.490;13.434;2023-09-19T06:22:39;3.58;;;0.95;;
20478;SDS011;10398;52.490;13.434;2023-09-19T06:25:06;3.53;;;0.68;;
20478;SDS011;10398;52.490;13.434;2023-09-19T06:27:32;3.10;;;0.73;;
20478;SDS011;10398;52.490;13.434;2023-09-19T06:30:00;3.00;;;0.88;;
20478;SDS011;10398;52.490;13.434;2023-09-19T06:32:27;2.20;;;0.93;;
20478;SDS011;10398;52.490;13.434;2023-09-19T06:34:52;0.77;;;0.45;;
20478;SDS011;10398;52.490;13.434;2023-09-19T06:37:23;6.32;;;0.88;;
20478;SDS011;10398;52.490;13.434;2023-09-19T06:39:53;2.38;;;0.73;;
20478;SDS011;10398;52.490;13.434;2023-09-19T06:42:18;2.58;;;0.90;;
20478;SDS011;10398;52.490;13.434;2023-09-19T06:44:44;1.65;;;0.90;;
20478;SDS011;10398;52.490;13.434;2023-09-19T06:47:10;4.00;;;0.85;;
20478;SDS011;10398;52.490;13.434;2023-09-19T06:49:36;2.47;;;0.88;;
20478;SDS011;10398;52.490;13.434;2023-09-19T06:52:01;2.60;;;0.90;;
20478;SDS011;10398;52.490;13.434;2023-09-19T06:54:28;2.00;;;0.98;;
20478;SDS011;10398;52.490;13.434;2023-09-19T06:56:59;1.33;;;0.70;;
20478;SDS011;10398;52.490;13.434;2023-09-19T06:59:25;1.98;;;0.95;;
20478;SDS011;10398;52.490;13.434;2023-09-19T07:01:50;3.47;;;0.85;;
20478;SDS011;10398;52.490;13.434;2023-09-19T07:04:16;5.47;;;0.80;;
20478;SDS011;10398;52.490;13.434;2023-09-19T07:06:44;4.20;;;0.60;;
20478;SDS011;10398;52.490;13.434;2023-09-19T07:09:14;5.60;;;0.95;;
20478;SDS011;10398;52.490;13.434;2023-09-19T07:11:40;2.45;;;0.77;;
20478;SDS011;10398;52.490;13.434;2023-09-19T07:14:06;1.42;;;0.90;;
20478;SDS011;10398;52.490;13.434;2023-09-19T07:16:32;5.30;;;1.13;;
20478;SDS011;10398;52.490;13.434;2023-09-19T07:18:57;3.53;;;0.85;;
20478;SDS011;10398;52.490;13.434;2023-09-19T07:21:23;4.97;;;1.13;;
20478;SDS011;10398;52.490;13.434;2023-09-19T07:23:49;4.93;;;1.15;;
20478;SDS011;10398;52.490;13.434;2023-09-19T07:26:15;3.45;;;0.93;;
20478;SDS011;10398;52.490;13.434;2023-09-19T07:28:42;3.60;;;1.08;;
20478;SDS011;10398;52.490;13.434;2023-09-19T07:31:07;6.13;;;1.60;;
20478;SDS011;10398;52.490;13.434;2023-09-19T07:33:35;3.20;;;1.10;;
20478;SDS011;10398;52.490;13.434;2023-09-19T07:36:01;4.00;;;1.17;;
20478;SDS011;10398;52.490;13.434;2023-09-19T07:38:27;3.92;;;1.13;;
20478;SDS011;10398;52.490;13.434;2023-09-19T07:40:53;2.40;;;0.88;;
20478;SDS011;10398;52.490;13.434;2023-09-19T07:43:25;4.95;;;1.27;;
20478;SDS011;10398;52.490;13.434;2023-09-19T07:45:51;5.53;;;1.50;;
20478;SDS011;10398;52.490;13.434;2023-09-19T07:48:17;5.00;;;2.00;;
20478;SDS011;10398;52.490;13.434;2023-09-19T07:50:43;5.10;;;1.23;;
20478;SDS011;10398;52.490;13.434;2023-09-19T07:53:09;9.82;;;1.40;;
20478;SDS011;10398;52.490;13.434;2023-09-19T07:55:35;4.30;;;1.27;;
20478;SDS011;10398;52.490;13.434;2023-09-19T07:58:01;3.80;;;1.55;;
20478;SDS011;10398;52.490;13.434;2023-09-19T08:00:29;5.55;;;1.40;;
20478;SDS011;10398;52.490;13.434;2023-09-19T08:02:55;5.68;;;1.45;;
20478;SDS011;10398;52.490;13.434;2023-09-19T08:05:20;7.47;;;1.60;;
20478;SDS011;10398;52.490;13.434;2023-09-19T08:07:47;8.40;;;1.88;;
20478;SDS011;10398;52.490;13.434;2023-09-19T08:10:16;5.35;;;1.38;;
20478;SDS011;10398;52.490;13.434;2023-09-19T08:12:43;4.70;;;1.67;;
20478;SDS011;10398;52.490;13.434;2023-09-19T08:15:12;4.00;;;1.40;;
20478;SDS011;10398;52.490;13.434;2023-09-19T08:17:38;4.05;;;1.20;;
20478;SDS011;10398;52.490;13.434;2023-09-19T08:20:04;3.83;;;1.23;;
20478;SDS011;10398;52.490;13.434;2023-09-19T08:22:30;3.60;;;1.48;;
20478;SDS011;10398;52.490;13.434;2023-09-19T08:24:57;3.97;;;1.33;;
20478;SDS011;10398;52.490;13.434;2023-09-19T08:27:23;2.53;;;1.17;;
20478;SDS011;10398;52.490;13.434;2023-09-19T08:29:52;3.80;;;1.10;;
20478;SDS011;10398;52.490;13.434;2023-09-19T08:32:18;3.35;;;1.17;;
20478;SDS011;10398;52.490;13.434;2023-09-19T08:34:49;3.45;;;1.20;;
20478;SDS011;10398;52.490;13.434;2023-09-19T08:37:14;2.47;;;1.30;;
20478;SDS011;10398;52.490;13.434;2023-09-19T08:39:44;3.95;;;1.40;;
20478;SDS011;10398;52.490;13.434;2023-09-19T08:42:09;4.93;;;1.48;;
20478;SDS011;10398;52.490;13.434;2023-09-19T08:44:37;2.70;;;1.40;;
20478;SDS011;10398;52.490;13.434;2023-09-19T08:47:14;5.07;;;1.58;;
20478;SDS011;10398;52.490;13.434;2023-09-19T08:52:25;5.30;;;1.80;;
20478;SDS011;10398;52.490;13.434;2023-09-19T08:54:58;5.80;;;1.60;;
20478;SDS011;10398;52.490;13.434;2023-09-19T08:57:29;7.75;;;1.70;;
20478;SDS011;10398;52.490;13.434;2023-09-19T09:00:02;2.55;;;1.15;;
20478;SDS011;10398;52.490;13.434;2023-09-19T09:02:35;4.53;;;1.50;;
20478;SDS011;10398;52.490;13.434;2023-09-19T09:05:06;5.40;;;1.40;;
20478;SDS011;10398;52.490;13.434;2023-09-19T09:07:36;3.75;;;1.50;;
20478;SDS011;10398;52.490;13.434;2023-09-19T09:10:03;3.65;;;1.42;;
20478;SDS011;10398;52.490;13.434;2023-09-19T09:12:29;4.60;;;1.58;;
20478;SDS011;10398;52.490;13.434;2023-09-19T09:14:55;4.88;;;1.67;;
20478;SDS011;10398;52.490;13.434;2023-09-19T09:17:25;4.28;;;1.55;;
20478;SDS011;10398;52.490;13.434;2023-09-19T09:19:53;2.60;;;1.58;;
20478;SDS011;10398;52.490;13.434;2023-09-19T09:22:19;6.28;;;1.70;;
20478;SDS011;10398;52.490;13.434;2023-09-19T09:27:23;4.20;;;1.40;;
20478;SDS011;10398;52.490;13.434;2023-09-19T09:29:49;8.57;;;1.88;;
20478;SDS011;10398;52.490;13.434;2023-09-19T09:34:50;6.97;;;1.60;;
20478;SDS011;10398;52.490;13.434;2023-09-19T09:37:17;5.68;;;1.50;;
20478;SDS011;10398;52.490;13.434;2023-09-19T09:39:53;10.48;;;1.80;;
20478;SDS011;10398;52.490;13.434;2023-09-19T09:42:33;3.83;;;1.58;;
20478;SDS011;10398;52.490;13.434;2023-09-19T09:47:42;6.15;;;1.92;;
20478;SDS011;10398;52.490;13.434;2023-09-19T09:50:27;7.57;;;2.10;;
20478;SDS011;10398;52.490;13.434;2023-09-19T09:53:25;5.82;;;1.63;;
20478;SDS011;10398;52.490;13.434;2023-09-19T09:55:59;5.95;;;1.55;;
20478;SDS011;10398;52.490;13.434;2023-09-19T09:58:38;8.52;;;1.45;;
20478;SDS011;10398;52.490;13.434;2023-09-19T10:01:15;5.30;;;2.05;;
20478;SDS011;10398;52.490;13.434;2023-09-19T10:03:42;4.38;;;1.80;;
20478;SDS011;10398;52.490;13.434;2023-09-19T10:06:15;4.20;;;1.55;;
20478;SDS011;10398;52.490;13.434;2023-09-19T10:11:43;7.05;;;1.52;;
20478;SDS011;10398;52.490;13.434;2023-09-19T10:14:11;6.72;;;2.10;;
20478;SDS011;10398;52.490;13.434;2023-09-19T10:16:40;3.88;;;1.50;;
20478;SDS011;10398;52.490;13.434;2023-09-19T10:19:29;4.03;;;1.60;;
20478;SDS011;10398;52.490;13.434;2023-09-19T10:21:59;3.97;;;1.38;;
20478;SDS011;10398;52.490;13.434;2023-09-19T10:24:27;5.55;;;1.77;;
20478;SDS011;10398;52.490;13.434;2023-09-19T10:26:53;6.75;;;1.08;;
20478;SDS011;10398;52.490;13.434;2023-09-19T10:29:20;5.20;;;2.35;;
20478;SDS011;10398;52.490;13.434;2023-09-19T10:31:47;4.13;;;1.40;;
20478;SDS011;10398;52.490;13.434;2023-09-19T10:34:16;3.80;;;1.67;;
20478;SDS011;10398;52.490;13.434;2023-09-19T10:36:46;4.13;;;1.48;;
20478;SDS011;10398;52.490;13.434;2023-09-19T10:39:15;5.65;;;1.80;;
20478;SDS011;10398;52.490;13.434;2023-09-19T10:41:44;6.75;;;1.60;;
20478;SDS011;10398;52.490;13.434;2023-09-19T10:44:23;4.00;;;1.30;;
20478;SDS011;10398;52.490;13.434;2023-09-19T10:46:50;2.90;;;1.50;;
20478;SDS011;10398;52.490;13.434;2023-09-19T10:49:18;4.65;;;1.65;;
20478;SDS011;10398;52.490;13.434;2023-09-19T10:51:44;2.97;;;1.60;;
20478;SDS011;10398;52.490;13.434;2023-09-19T10:54:15;5.32;;;1.60;;
20478;SDS011;10398;52.490;13.434;2023-09-19T10:56:46;4.63;;;1.77;;
20478;SDS011;10398;52.490;13.434;2023-09-19T10:59:16;4.15;;;1.40;;
20478;SDS011;10398;52.490;13.434;2023-09-19T11:01:44;4.25;;;1.70;;
20478;SDS011;10398;52.490;13.434;2023-09-19T11:04:30;4.32;;;1.55;;
20478;SDS011;10398;52.490;13.434;2023-09-19T11:07:04;5.38;;;1.30;;
20478;SDS011;10398;52.490;13.434;2023-09-19T11:09:50;5.78;;;1.88;;
20478;SDS011;10398;52.490;13.434;2023-09-19T11:15:02;10.68;;;1.50;;
20478;SDS011;10398;52.490;13.434;2023-09-19T11:30:49;2.85;;;1.25;;
20478;SDS011;10398;52.490;13.434;2023-09-19T11:33:17;3.28;;;1.15;;
20478;SDS011;10398;52.490;13.434;2023-09-19T11:35:58;4.75;;;1.35;;
20478;SDS011;10398;52.490;13.434;2023-09-19T11:43:53;3.15;;;1.17;;
20478;SDS011;10398;52.490;13.434;2023-09-19T11:46:29;4.80;;;1.30;;
20478;SDS011;10398;52.490;13.434;2023-09-19T11:49:26;5.05;;;1.48;;
20478;SDS011;10398;52.490;13.434;2023-09-19T11:51:57;3.67;;;1.17;;
20478;SDS011;10398;52.490;13.434;2023-09-19T11:54:27;4.28;;;1.33;;
20478;SDS011;10398;52.490;13.434;2023-09-19T11:56:56;3.65;;;1.23;;
20478;SDS011;10398;52.490;13.434;2023-09-19T11:59:24;4.28;;;1.38;;
20478;SDS011;10398;52.490;13.434;2023-09-19T12:01:59;5.47;;;1.60;;
20478;SDS011;10398;52.490;13.434;2023-09-19T12:04:39;4.63;;;1.27;;
20478;SDS011;10398;52.490;13.434;2023-09-19T12:07:08;3.97;;;1.20;;
20478;SDS011;10398;52.490;13.434;2023-09-19T12:09:39;3.92;;;1.20;;
20478;SDS011;10398;52.490;13.434;2023-09-19T12:12:09;3.90;;;1.27;;
20478;SDS011;10398;52.490;13.434;2023-09-19T12:14:51;3.28;;;0.80;;
20478;SDS011;10398;52.490;13.434;2023-09-19T12:17:17;4.50;;;1.25;;
20478;SDS011;10398;52.490;13.434;2023-09-19T12:19:49;3.35;;;0.90;;
20478;SDS011;10398;52.490;13.434;2023-09-19T12:22:20;5.82;;;1.20;;
20478;SDS011;10398;52.490;13.434;2023-09-19T12:24:46;3.80;;;1.42;;
20478;SDS011;10398;52.490;13.434;2023-09-19T12:27:13;4.15;;;1.10;;
20478;SDS011;10398;52.490;13.434;2023-09-19T12:32:08;4.70;;;1.23;;
20478;SDS011;10398;52.490;13.434;2023-09-19T12:34:34;11.82;;;1.52;;
20478;SDS011;10398;52.490;13.434;2023-09-19T12:37:13;2.60;;;0.75;;
20478;SDS011;10398;52.490;13.434;2023-09-19T12:40:09;4.78;;;1.88;;
20478;SDS011;10398;52.490;13.434;2023-09-19T12:42:42;12.27;;;3.08;;
20478;SDS011;10398;52.490;13.434;2023-09-19T12:45:09;5.28;;;1.70;;
20478;SDS011;10398;52.490;13.434;2023-09-19T12:47:38;8.52;;;2.40;;
20478;SDS011;10398;52.490;13.434;2023-09-19T12:50:12;7.57;;;2.28;;
20478;SDS011;10398;52.490;13.434;2023-09-19T12:52:39;3.35;;;1.02;;
20478;SDS011;10398;52.490;13.434;2023-09-19T12:55:06;7.05;;;1.33;;
20478;SDS011;10398;52.490;13.434;2023-09-19T12:57:33;8.40;;;1.80;;
20478;SDS011;10398;52.490;13.434;2023-09-19T13:00:03;9.60;;;2.80;;
20478;SDS011;10398;52.490;13.434;2023-09-19T13:02:36;3.28;;;1.00;;
20478;SDS011;10398;52.490;13.434;2023-09-19T13:05:02;2.95;;;1.33;;
20478;SDS011;10398;52.490;13.434;2023-09-19T13:07:44;2.88;;;1.10;;
20478;SDS011;10398;52.490;13.434;2023-09-19T13:10:14;6.35;;;1.08;;
20478;SDS011;10398;52.490;13.434;2023-09-19T13:12:41;5.15;;;1.23;;
20478;SDS011;10398;52.490;13.434;2023-09-19T13:15:12;3.85;;;1.23;;
20478;SDS011;10398;52.490;13.434;2023-09-19T13:17:45;1.92;;;0.80;;
20478;SDS011;10398;52.490;13.434;2023-09-19T13:22:57;6.05;;;0.82;;
20478;SDS011;10398;52.490;13.434;2023-09-19T13:25:33;4.88;;;1.52;;
20478;SDS011;10398;52.490;13.434;2023-09-19T13:28:00;1.80;;;1.00;;
20478;SDS011;10398;52.490;13.434;2023-09-19T13:30:29;4.53;;;1.10;;
20478;SDS011;10398;52.490;13.434;2023-09-19T13:33:09;2.30;;;0.60;;
20478;SDS011;10398;52.490;13.434;2023-09-19T13:35:36;2.85;;;0.88;;
20478;SDS011;10398;52.490;13.434;2023-09-19T13:38:06;1.35;;;0.70;;
20478;SDS011;10398;52.490;13.434;2023-09-19T13:40:34;2.50;;;0.90;;
20478;SDS011;10398;52.490;13.434;2023-09-19T13:43:03;3.97;;;1.05;;
20478;SDS011;10398;52.490;13.434;2023-09-19T13:45:29;3.63;;;0.77;;
20478;SDS011;10398;52.490;13.434;2023-09-19T13:47:55;5.05;;;0.93;;
20478;SDS011;10398;52.490;13.434;2023-09-19T13:50:21;5.95;;;1.10;;
20478;SDS011;10398;52.490;13.434;2023-09-19T13:52:49;3.45;;;0.85;;
20478;SDS011;10398;52.490;13.434;2023-09-19T13:55:16;4.82;;;1.02;;
20478;SDS011;10398;52.490;13.434;2023-09-19T13:57:45;3.60;;;1.00;;
20478;SDS011;10398;52.490;13.434;2023-09-19T14:00:15;1.63;;;0.82;;
20478;SDS011;10398;52.490;13.434;2023-09-19T14:02:41;2.70;;;1.13;;
20478;SDS011;10398;52.490;13.434;2023-09-19T14:05:09;4.28;;;1.38;;
20478;SDS011;10398;52.490;13.434;2023-09-19T14:07:37;4.00;;;1.20;;
20478;SDS011;10398;52.490;13.434;2023-09-19T14:10:03;3.88;;;1.52;;
20478;SDS011;10398;52.490;13.434;2023-09-19T14:12:32;3.50;;;1.50;;
20478;SDS011;10398;52.490;13.434;2023-09-19T14:14:59;3.50;;;1.15;;
20478;SDS011;10398;52.490;13.434;2023-09-19T14:17:25;2.42;;;1.00;;
20478;SDS011;10398;52.490;13.434;2023-09-19T14:19:51;4.50;;;1.13;;
20478;SDS011;10398;52.490;13.434;2023-09-19T14:22:17;3.65;;;0.80;;
20478;SDS011;10398;52.490;13.434;2023-09-19T14:24:43;8.13;;;0.90;;
20478;SDS011;10398;52.490;13.434;2023-09-19T14:27:09;3.50;;;0.80;;
20478;SDS011;10398;52.490;13.434;2023-09-19T14:29:35;4.63;;;1.60;;
20478;SDS011;10398;52.490;13.434;2023-09-19T14:32:01;3.28;;;1.13;;
20478;SDS011;10398;52.490;13.434;2023-09-19T14:34:27;5.20;;;0.82;;
20478;SDS011;10398;52.490;13.434;2023-09-19T14:36:52;3.53;;;0.93;;
20478;SDS011;10398;52.490;13.434;2023-09-19T14:39:19;2.28;;;0.95;;
20478;SDS011;10398;52.490;13.434;2023-09-19T14:41:45;4.72;;;1.10;;
20478;SDS011;10398;52.490;13.434;2023-09-19T14:44:11;3.45;;;1.40;;
20478;SDS011;10398;52.490;13.434;2023-09-19T14:46:36;19.63;;;1.75;;
20478;SDS011;10398;52.490;13.434;2023-09-19T14:49:02;5.05;;;1.00;;
20478;SDS011;10398;52.490;13.434;2023-09-19T14:51:29;2.38;;;1.10;;
20478;SDS011;10398;52.490;13.434;2023-09-19T14:53:56;5.97;;;1.92;;
20478;SDS011;10398;52.490;13.434;2023-09-19T14:56:26;10.15;;;2.30;;
20478;SDS011;10398;52.490;13.434;2023-09-19T14:58:55;7.28;;;2.20;;
20478;SDS011;10398;52.490;13.434;2023-09-19T15:01:20;5.28;;;1.30;;
20478;SDS011;10398;52.490;13.434;2023-09-19T15:03:47;6.80;;;1.30;;
20478;SDS011;10398;52.490;13.434;2023-09-19T15:06:14;3.60;;;0.93;;
20478;SDS011;10398;52.490;13.434;2023-09-19T15:08:42;2.47;;;0.95;;
20478;SDS011;10398;52.490;13.434;2023-09-19T15:11:16;2.97;;;1.10;;
20478;SDS011;10398;52.490;13.434;2023-09-19T15:13:42;7.60;;;1.88;;
20478;SDS011;10398;52.490;13.434;2023-09-19T15:16:09;5.65;;;1.77;;
20478;SDS011;10398;52.490;13.434;2023-09-19T15:18:37;4.43;;;1.77;;
20478;SDS011;10398;52.490;13.434;2023-09-19T15:21:04;3.40;;;1.40;;
20478;SDS011;10398;52.490;13.434;2023-09-19T15:23:31;3.00;;;1.38;;
20478;SDS011;10398;52.490;13.434;2023-09-19T15:26:02;6.97;;;1.67;;
20478;SDS011;10398;52.490;13.434;2023-09-19T15:28:33;7.65;;;1.95;;
20478;SDS011;10398;52.490;13.434;2023-09-19T15:33:29;5.03;;;1.77;;
20478;SDS011;10398;52.490;13.434;2023-09-19T15:38:31;4.82;;;1.35;;
20478;SDS011;10398;52.490;13.434;2023-09-19T15:41:12;9.55;;;2.55;;